EZY42C EGCC-EGGD
Flight info
| Callsign | EZY42C |
|---|---|
| Flight time | N/A |
| Altitude | 17000 |
| Route | KUXEM P17 NOKIN N862 WEVBE |
| Aircraft | A20N/M-SDE2E3FGHIRWXY/LB1 |
Departure
| Time | 2026-05-04 16:20 |
|---|---|
| Airport | Manchester Airport (EGCC) |
Arrival
| Time | N/A |
|---|---|
| Airport | Bristol Airport (EGGD) |
| Time | Latitude | Longitude | Altitude | Speed | Heading |
|---|---|---|---|---|---|
| 2026-05-04 15:57 | 53.36589 | -2.28619 | 249 ft | 0 kts | 135° |
| 2026-05-04 16:01 | 53.36592 | -2.28623 | 249 ft | 3 kts | 135° |
| 2026-05-04 16:01 | 53.36605 | -2.28645 | 249 ft | 3 kts | 135° |
| 2026-05-04 16:01 | 53.36618 | -2.28667 | 249 ft | 3 kts | 135° |
| 2026-05-04 16:01 | 53.36631 | -2.28689 | 249 ft | 3 kts | 135° |
| 2026-05-04 16:02 | 53.36644 | -2.28709 | 249 ft | 3 kts | 135° |
| 2026-05-04 16:02 | 53.36657 | -2.28725 | 249 ft | 2 kts | 191° |
| 2026-05-04 16:02 | 53.36670 | -2.28712 | 249 ft | 0 kts | 242° |
| 2026-05-04 16:04 | 53.36582 | -2.28758 | 249 ft | 11 kts | 140° |
| 2026-05-04 16:04 | 53.36520 | -2.28659 | 249 ft | 13 kts | 134° |
| 2026-05-04 16:05 | 53.36450 | -2.28538 | 249 ft | 15 kts | 133° |
| 2026-05-04 16:05 | 53.36389 | -2.28377 | 249 ft | 17 kts | 121° |
| 2026-05-04 16:05 | 53.36201 | -2.28057 | 249 ft | 21 kts | 135° |
| 2026-05-04 16:06 | 53.36131 | -2.27939 | 249 ft | 22 kts | 135° |
| 2026-05-04 16:07 | 53.35839 | -2.27789 | 249 ft | 0 kts | 136° |
| 2026-05-04 16:07 | 53.35702 | -2.27616 | 249 ft | 15 kts | 157° |
| 2026-05-04 16:08 | 53.35646 | -2.27559 | 249 ft | 0 kts | 141° |
| 2026-05-04 16:09 | 53.35634 | -2.27543 | 250 ft | 1 kts | 141° |
| 2026-05-04 16:09 | 53.35632 | -2.27540 | 250 ft | 0 kts | 140° |
| 2026-05-04 16:10 | 53.35601 | -2.27498 | 254 ft | 2 kts | 140° |
| 2026-05-04 16:11 | 53.35590 | -2.27483 | 256 ft | 0 kts | 140° |
| 2026-05-04 16:12 | 53.35570 | -2.27455 | 258 ft | 8 kts | 141° |
| 2026-05-04 16:12 | 53.35409 | -2.27234 | 261 ft | 18 kts | 139° |
| 2026-05-04 16:13 | 53.35177 | -2.27440 | 250 ft | 14 kts | 231° |
| 2026-05-04 16:13 | 53.35087 | -2.27631 | 246 ft | 17 kts | 232° |
| 2026-05-04 16:14 | 53.34988 | -2.27688 | 242 ft | 0 kts | 173° |
| 2026-05-04 16:19 | 53.34883 | -2.27667 | 238 ft | 17 kts | 177° |
| 2026-05-04 16:20 | 53.33907 | -2.29609 | 296 ft | 156 kts | 232° |
| 2026-05-04 16:20 | 53.32498 | -2.32474 | 2119 ft | 168 kts | 230° |
| 2026-05-04 16:21 | 53.30122 | -2.38596 | 4698 ft | 240 kts | 264° |
| 2026-05-04 16:22 | 53.29570 | -2.44142 | 6915 ft | 245 kts | 266° |
| 2026-05-04 16:22 | 53.31607 | -2.52103 | 10082 ft | 261 kts | 301° |